Latest Weather Observations for Georgetown Airport

IDQ60801

Issued at 5:32 pm EST Tuesday 21 February 2017 (issued every 30 minutes, with the page automatically refreshed every 10 minutes)

About weather observations | Map of weather stations | Latest weather observations for QLD | Other Formats
Station Details ID: 030124 Name: GEORGETOWN AIRPORT Lat: -18.30 Lon: 143.53 Height: 301.77 m
Data from the previous 72 hours. | See also: Recent months at Georgetown Airport
Date/Time
EST
Temp
°C
App
Temp
°C
Dew
Point
°C
Rel
Hum
%
Delta-T
°C
Wind Press
QNH
hPa
Press
MSL
hPa
Rain since
9am
mm
Dir  Spd
km/h
Gust
km/h
Spd
kts
Gust
kts
21/05:17pm 24.0 26.8 23.0 94 0.7 NNE 13 35 7 19 1011.0 - 0.6
21/05:07pm 24.0 22.8 22.6 92 1.0 NNW 33 46 18 25 1010.1 - 0.2
21/05:00pm 24.8 23.1 22.5 87 1.6 NNW 35 46 19 25 1010.1 - 0.2
21/04:50pm 28.9 27.0 21.4 64 5.1 N 33 46 18 25 1010.0 - 0.0
21/04:30pm 32.9 36.0 23.5 57 6.6 NW 13 19 7 10 1009.2 - 0.0
21/04:00pm 32.7 36.2 21.9 53 7.4 NW 6 7 3 4 1009.3 - 0.0
21/03:30pm 32.7 36.2 22.2 54 7.2 NE 7 15 4 8 1009.5 - 0.0
21/03:00pm 32.4 35.3 22.5 56 6.9 NNE 11 15 6 8 1009.7 1007.6 0.0
21/02:30pm 31.9 34.5 22.6 58 6.4 ENE 13 22 7 12 1010.1 - 0.0
21/02:00pm 32.2 35.2 23.4 59 6.2 NNE 13 17 7 9 1010.6 - 0.0
21/01:30pm 31.2 34.4 23.0 61 5.7 NNE 11 17 6 9 1011.5 - 0.0
21/01:00pm 30.7 33.0 22.8 62 5.5 ENE 15 24 8 13 1012.1 - 0.0
21/12:30pm 31.2 34.7 23.6 64 5.3 N 11 20 6 11 1012.6 - 0.0
21/12:00pm 29.9 31.5 22.1 63 5.3 N 17 22 9 12 1013.0 1010.9 0.0
21/11:30am 29.6 31.5 22.1 64 5.1 NE 15 22 8 12 1013.1 - 0.0
21/11:00am 28.3 31.6 23.2 74 3.5 NNE 11 15 6 8 1013.5 - 0.0
21/10:30am 28.7 32.6 23.6 74 3.5 ENE 9 15 5 8 1013.5 - 0.0
21/10:00am 27.7 31.7 23.1 76 3.2 ENE 7 13 4 7 1013.7 - 0.0
21/09:30am 26.9 31.7 24.5 87 1.7 SW 7 11 4 6 1013.8 - 0.0
21/09:00am 24.9 28.5 23.0 89 1.3 WSW 9 13 5 7 1013.6 1011.5 56.8
21/08:30am 24.5 29.6 22.7 90 1.2 CALM 0 7 0 4 1013.1 - 56.8
21/08:00am 23.5 26.4 22.5 94 0.7 SE 11 17 6 9 1012.7 - 56.8
21/07:30am 22.6 25.6 21.9 96 0.5 S 9 15 5 8 1013.0 - 56.8
21/07:00am 22.3 25.8 22.1 99 0.1 S 7 11 4 6 1012.9 - 56.8
21/06:30am 22.3 25.3 22.0 98 0.2 S 9 13 5 7 1012.7 - 56.8
21/06:00am 22.5 26.1 22.3 99 0.1 SSW 7 11 4 6 1012.6 1010.5 56.6
21/05:30am 22.6 26.2 22.4 99 0.1 SSW 7 9 4 5 1012.2 - 56.4
21/05:00am 22.8 28.0 22.8 100 0.0 CALM 0 0 0 0 1011.8 - 56.4
21/04:30am 22.6 27.5 22.4 99 0.1 CALM 0 0 0 0 1011.4 - 56.4
21/04:00am 22.6 27.5 22.4 99 0.1 CALM 0 0 0 0 1011.4 - 56.4
21/03:30am 22.5 26.2 22.3 99 0.1 S 6 7 3 4 1011.3 - 56.4
21/03:00am 22.4 26.1 22.2 99 0.1 S 6 9 3 5 1011.6 1009.6 56.2
21/02:30am 22.5 26.1 22.3 99 0.1 S 7 9 4 5 1011.9 - 56.2
21/02:00am 22.6 25.8 22.4 99 0.1 SSE 9 15 5 8 1012.0 - 56.2
21/01:30am 22.7 26.1 22.7 100 0.0 S 9 13 5 7 1012.5 - 56.0
21/01:00am 22.8 26.6 22.8 100 0.0 SSE 7 11 4 6 1013.0 - 55.4
21/12:30am 22.7 26.1 22.7 100 0.0 SSE 9 13 5 7 1013.5 - 54.4
21/12:29am 22.7 26.5 22.7 100 0.0 SE 7 13 4 7 1013.5 - 54.4
21/12:00am 22.6 26.2 22.4 99 0.1 E 7 9 4 5 1014.1 1012.1 51.8
 
Date/Time
EST
Temp
°C
App
Temp
°C
Dew
Point
°C
Rel
Hum
%
Delta-T
°C
Wind Press
QNH
hPa
Press
MSL
hPa
Rain since
9am
mm
Dir  Spd
km/h
Gust
km/h
Spd
kts
Gust
kts
20/11:43pm 22.6 25.8 22.4 99 0.1 ESE 9 15 5 8 1014.1 - 48.6
20/11:30pm 22.1 24.6 21.8 98 0.2 ESE 11 17 6 9 1014.0 - 47.6
20/11:00pm 22.9 25.1 22.6 98 0.2 E 15 28 8 15 1013.9 - 46.2
20/10:40pm 22.6 23.9 22.3 98 0.2 ENE 19 24 10 13 1013.7 - 45.8
20/10:30pm 22.9 25.2 22.7 99 0.1 NE 15 22 8 12 1013.3 - 45.4
20/10:29pm 22.9 25.5 22.7 99 0.1 NE 13 20 7 11 1013.3 - 45.2
20/10:00pm 23.4 23.8 23.1 98 0.2 NE 26 35 14 19 1013.4 - 32.8
20/09:56pm 23.4 23.7 22.9 97 0.3 NNE 26 35 14 19 1013.6 - 26.8
20/09:47pm 24.1 24.6 22.7 92 1.0 N 24 43 13 23 1013.1 - 14.2
20/09:30pm 25.2 30.4 24.2 94 0.7 ESE 4 20 2 11 1012.3 - 11.8
20/09:00pm 25.1 30.7 23.5 91 1.1 CALM 0 0 0 0 1011.3 1009.2 11.8
20/08:30pm 24.8 30.2 23.2 91 1.1 CALM 0 0 0 0 1010.8 - 11.8
20/08:00pm 24.7 29.5 22.9 90 1.2 SSE 2 7 1 4 1010.7 - 11.8
20/07:30pm 24.7 29.3 23.1 91 1.1 E 4 7 2 4 1010.1 - 11.8
20/07:00pm 24.2 26.8 21.9 87 1.5 SE 11 17 6 9 1009.5 - 11.8
20/06:30pm 24.9 28.5 22.4 86 1.7 SSE 7 15 4 8 1009.3 - 11.4
20/06:00pm 25.2 27.9 22.1 83 2.1 S 11 17 6 9 1009.1 1007.0 11.4
20/05:30pm 27.3 31.2 24.9 87 1.7 S 13 20 7 11 1008.4 - 11.4
20/05:10pm 26.8 31.4 25.4 92 1.0 SW 11 15 6 8 1008.0 - 11.4
20/05:00pm 26.3 30.6 24.9 92 1.0 SW 11 17 6 9 1008.1 - 11.4
20/04:58pm 26.3 30.9 24.7 91 1.1 SSW 9 11 5 6 1008.1 - 11.4
20/04:42pm 26.3 29.9 24.3 89 1.4 SSW 13 17 7 9 1008.1 - 10.0
20/04:30pm 25.5 27.7 23.2 87 1.6 SSW 17 24 9 13 1008.2 - 10.0
20/04:16pm 28.4 30.6 21.9 68 4.4 WSW 13 17 7 9 1008.5 - 3.4
20/04:00pm 31.1 34.1 22.7 61 5.8 SW 11 15 6 8 1008.1 - 0.2
20/03:30pm 32.6 35.5 21.8 53 7.4 WSW 9 13 5 7 1008.2 - 0.2
20/03:00pm 32.3 35.4 21.5 53 7.4 NNE 7 9 4 5 1008.4 1006.3 0.2
20/02:30pm 31.5 34.8 21.9 56 6.6 SW 7 13 4 7 1008.8 - 0.2
20/02:00pm 31.4 34.6 21.6 56 6.7 SSE 7 11 4 6 1009.1 - 0.2
20/01:30pm 31.3 34.1 20.9 54 7.0 NE 7 15 4 8 1009.4 - 0.2
20/01:00pm 30.8 33.8 21.9 59 6.1 N 9 15 5 8 1009.8 - 0.2
20/12:30pm 30.6 34.1 21.9 59 5.9 N 6 11 3 6 1010.3 - 0.2
20/12:00pm 30.1 33.2 21.5 60 5.8 NW 7 11 4 6 1010.6 1008.5 0.2
20/11:30am 29.7 33.9 22.4 65 5.0 E 4 11 2 6 1010.8 - 0.2
20/11:00am 28.6 32.6 21.4 65 4.9 NNE 2 7 1 4 1011.6 - 0.2
20/10:30am 28.0 31.9 22.5 72 3.8 SE 6 11 3 6 1011.7 - 0.2
20/10:00am 26.8 30.1 21.5 72 3.6 SE 6 9 3 5 1012.0 - 0.0
20/09:30am 25.9 29.3 22.0 79 2.6 E 7 11 4 6 1012.1 - 0.0
20/09:00am 25.0 28.3 21.5 81 2.3 ENE 6 7 3 4 1012.3 1010.2 1.2
20/08:30am 24.7 28.1 22.0 85 1.8 ENE 7 9 4 5 1011.9 - 1.2
20/08:00am 23.9 27.6 22.5 92 0.9 NE 7 9 4 5 1011.9 - 1.2
20/07:30am 23.5 28.4 22.3 93 0.8 CALM 0 0 0 0 1011.5 - 1.2
20/07:00am 23.3 28.3 22.5 95 0.5 CALM 0 4 0 2 1011.3 - 1.2
20/06:30am 23.2 26.8 22.4 95 0.5 NNE 7 9 4 5 1010.7 - 1.2
20/06:00am 23.3 28.4 22.6 96 0.5 CALM 0 0 0 0 1010.0 1007.9 1.2
20/05:30am 23.4 28.6 22.9 97 0.3 CALM 0 0 0 0 1009.8 - 1.2
20/05:00am 23.4 28.7 23.1 98 0.2 CALM 0 0 0 0 1009.7 - 1.2
20/04:30am 23.3 28.6 23.0 98 0.2 CALM 0 0 0 0 1009.6 - 1.2
20/04:00am 23.5 28.0 23.0 97 0.3 ENE 4 9 2 5 1009.6 - 1.2
20/03:30am 23.4 28.6 22.9 97 0.3 CALM 0 0 0 0 1009.8 - 1.2
20/03:00am 23.4 28.1 22.7 96 0.5 N 2 7 1 4 1009.7 1007.6 1.2
20/02:30am 23.5 27.4 23.0 97 0.3 NE 7 11 4 6 1009.8 - 1.2
20/02:00am 23.4 27.3 22.9 97 0.3 WNW 7 9 4 5 1010.3 - 1.2
20/01:30am 23.5 27.6 23.2 98 0.2 NW 7 13 4 7 1011.1 - 1.2
20/01:00am 23.4 27.5 22.9 97 0.3 NW 6 11 3 6 1011.4 - 1.2
20/12:35am 23.5 27.3 22.8 96 0.5 E 7 9 4 5 1011.6 - 1.2
20/12:30am 23.5 27.9 22.8 96 0.5 SSE 4 9 2 5 1011.6 - 1.0
20/12:24am 23.5 28.7 22.8 96 0.5 CALM 0 0 0 0 1011.8 - 1.0
20/12:00am 23.6 27.3 22.6 94 0.7 ENE 7 9 4 5 1012.2 1010.1 1.0
 
Date/Time
EST
Temp
°C
App
Temp
°C
Dew
Point
°C
Rel
Hum
%
Delta-T
°C
Wind Press
QNH
hPa
Press
MSL
hPa
Rain since
9am
mm
Dir  Spd
km/h
Gust
km/h
Spd
kts
Gust
kts
19/11:30pm 23.8 28.2 22.8 94 0.7 N 4 7 2 4 1012.4 - 1.0
19/11:00pm 23.9 27.8 22.5 92 0.9 N 6 9 3 5 1012.5 - 0.4
19/10:30pm 24.0 26.9 22.4 91 1.1 N 11 15 6 8 1012.3 - 0.2
19/10:00pm 24.5 27.9 22.7 90 1.2 NNE 9 13 5 7 1012.6 - 0.2
19/09:30pm 24.9 28.0 22.2 85 1.8 N 9 13 5 7 1012.2 - 0.2
19/09:00pm 25.8 29.0 22.3 81 2.4 N 9 13 5 7 1011.8 1009.7 0.2
19/08:30pm 26.3 29.8 22.2 78 2.8 NW 7 11 4 6 1011.4 - 0.2
19/08:00pm 26.4 30.0 23.1 82 2.3 NNW 9 13 5 7 1010.1 - 0.2
19/07:30pm 26.6 30.4 23.5 83 2.1 N 9 13 5 7 1009.4 - 0.2
19/07:00pm 26.8 31.1 23.3 81 2.4 N 6 9 3 5 1009.5 - 0.2
19/06:30pm 27.0 31.9 23.7 82 2.3 W 4 6 2 3 1009.1 - 0.2
19/06:00pm 27.3 31.5 23.1 78 2.9 WSW 6 7 3 4 1009.2 1007.1 0.2
19/05:30pm 27.4 31.5 23.0 77 3.0 SSW 6 7 3 4 1009.0 - 0.2
19/05:00pm 27.5 32.0 22.9 76 3.2 SW 4 7 2 4 1009.0 - 0.2
19/04:30pm 27.4 30.9 22.8 76 3.2 SW 9 13 5 7 1008.8 - 0.2
19/04:00pm 27.3 30.4 22.9 77 3.0 SW 11 17 6 9 1008.6 - 0.2
19/03:30pm 26.9 30.0 22.9 79 2.7 WSW 11 17 6 9 1008.8 - 0.2
19/03:00pm 27.5 30.7 22.4 73 3.5 SW 9 13 5 7 1009.0 1006.9 0.2
19/02:30pm 28.2 30.8 21.2 65 4.7 SSW 9 13 5 7 1009.2 - 0.2
19/02:00pm 28.6 32.1 22.1 68 4.4 SSW 7 11 4 6 1009.3 - 0.2
19/01:30pm 28.6 31.3 21.4 65 4.9 S 9 15 5 8 1009.7 - 0.2
19/01:00pm 28.9 31.2 21.4 64 5.1 S 11 20 6 11 1010.2 - 0.2
19/12:30pm 28.2 30.8 21.2 65 4.7 SSE 9 15 5 8 1011.1 - 0.2
19/12:00pm 27.2 30.3 21.5 71 3.8 S 7 11 4 6 1011.8 1009.7 0.2
19/11:34am 27.0 30.2 22.4 76 3.1 WSW 9 15 5 8 1012.1 - 0.2
19/11:30am 26.7 29.9 22.3 77 3.0 WSW 9 11 5 6 1012.2 - 0.2
19/11:00am 27.0 31.3 23.7 82 2.3 SSW 7 13 4 7 1012.4 - 0.2
19/10:30am 25.9 29.4 22.8 83 2.1 S 9 11 5 6 1012.6 - 0.0
19/10:00am 25.4 29.4 22.7 85 1.8 SSE 6 9 3 5 1012.8 - 0.0
19/09:58am 25.3 29.2 22.6 85 1.8 SSE 6 9 3 5 1012.8 - 0.0
19/09:30am 25.1 28.9 22.4 85 1.8 S 6 9 3 5 1012.7 - 0.0
19/09:02am 25.0 29.2 23.1 89 1.3 SSW 6 9 3 5 1012.5 - 0.0
19/09:00am 25.0 29.2 23.1 89 1.3 S 6 9 3 5 1012.5 1010.3 14.0
19/08:42am 24.6 28.5 22.5 88 1.4 S 6 9 3 5 1012.3 - 14.0
19/08:30am 24.5 28.6 22.9 91 1.1 S 6 9 3 5 1012.2 - 14.0
19/08:00am 23.8 28.3 22.9 95 0.6 SSW 4 7 2 4 1012.2 - 14.0
19/07:30am 23.7 29.1 23.2 97 0.3 CALM 0 0 0 0 1012.2 - 14.0
19/07:00am 23.4 28.7 23.1 98 0.2 CALM 0 0 0 0 1011.7 - 14.0
19/06:30am 23.3 27.7 22.8 97 0.3 WSW 4 7 2 4 1011.5 - 13.8
19/06:00am 23.4 28.5 22.7 96 0.5 CALM 0 0 0 0 1011.4 1009.3 13.4
19/05:30am 23.3 28.5 22.8 97 0.3 CALM 0 0 0 0 1011.3 - 13.2
19/05:00am 23.2 28.3 22.7 97 0.3 CALM 0 0 0 0 1010.7 - 13.2
19/04:30am 23.1 28.2 22.6 97 0.3 CALM 0 0 0 0 1010.1 - 13.2
19/04:00am 23.0 26.7 22.5 97 0.3 S 7 9 4 5 1009.6 - 13.2
19/03:30am 23.0 26.7 22.5 97 0.3 S 7 9 4 5 1009.8 - 13.0
19/03:00am 22.9 26.7 22.4 97 0.3 SW 6 7 3 4 1009.9 1007.8 13.0
19/02:30am 22.9 27.1 22.4 97 0.3 SSW 4 6 2 3 1010.1 - 13.0
19/02:00am 22.9 27.7 22.1 95 0.5 CALM 0 0 0 0 1010.4 - 13.0
19/01:30am 22.8 26.4 22.1 96 0.5 WSW 6 7 3 4 1010.4 - 13.0
19/01:00am 22.7 26.0 21.9 95 0.5 SW 7 11 4 6 1010.8 - 13.0
19/12:30am 23.1 26.5 21.7 92 0.9 ENE 6 9 3 5 1011.7 - 13.0
19/12:00am 23.0 25.6 22.0 94 0.7 NE 11 15 6 8 1012.3 1010.2 13.0
 
Date/Time
EST
Temp
°C
App
Temp
°C
Dew
Point
°C
Rel
Hum
%
Delta-T
°C
Wind Press
QNH
hPa
Press
MSL
hPa
Rain since
9am
mm
Dir  Spd
km/h
Gust
km/h
Spd
kts
Gust
kts
18/11:30pm 23.1 25.7 22.6 97 0.3 ENE 13 20 7 11 1012.9 - 13.0
18/11:07pm 23.1 25.3 22.6 97 0.3 ENE 15 20 8 11 1013.3 - 12.6
18/11:00pm 23.0 25.1 22.5 97 0.3 NE 15 19 8 10 1013.3 - 12.4
18/10:55pm 23.0 25.0 22.3 96 0.5 NNE 15 19 8 10 1013.4 - 12.2
18/10:30pm 23.6 26.2 22.6 94 0.7 N 13 19 7 10 1013.5 - 10.6
18/10:00pm 23.8 26.9 22.8 94 0.7 WNW 11 20 6 11 1013.1 - 9.8
18/09:30pm 23.7 27.4 22.5 93 0.8 E 7 11 4 6 1012.3 - 9.8
18/09:00pm 23.7 26.6 22.5 93 0.8 ESE 11 17 6 9 1012.0 1009.9 9.8
18/08:30pm 23.4 25.9 22.4 94 0.7 SSE 13 20 7 11 1011.8 - 9.8
18/08:13pm 23.5 26.1 22.7 95 0.5 SSE 13 19 7 10 1012.2 - 9.6
18/08:00pm 23.6 26.6 22.6 94 0.7 SSE 11 17 6 9 1012.3 - 9.0
18/07:31pm 24.2 27.2 22.6 91 1.1 NE 11 15 6 8 1012.4 - 1.2
18/07:30pm 24.2 27.2 22.6 91 1.1 NE 11 15 6 8 1012.4 - 1.0
18/07:00pm 25.9 27.9 21.6 77 2.9 SSE 13 20 7 11 1011.2 - 0.0
18/06:30pm 26.1 29.3 22.4 80 2.5 S 9 15 5 8 1011.0 - 0.0
18/06:00pm 26.4 28.0 21.4 74 3.4 SSW 15 20 8 11 1010.3 1008.2 0.0

Other Formats:

Comma delimited format used in spreadsheet applications
http://www.bom.gov.au/fwo/IDQ60801/IDQ60801.94274.axf

JavaScript Object Notation format (JSON) in row-major order
http://www.bom.gov.au/fwo/IDQ60801/IDQ60801.94274.json